Time;durP1;ratioP1;P1;durP2;ratioP2;P2;SDS_P1;SDS_P2;PMS_P1;PMS_P2;Temp;Humidity;BMP_temperature;BMP_pressure;BME280_temperature;BME280_humidity;BME280_pressure;Samples;Min_cycle;Max_cycle;Signal;HPM_P1;HPM_P2
2022/01/19 00:02:06;;;;;;;33.37;19.30;;;;;;;0.40;100.00;103100.41;6503727;23;20076;-79
2022/01/19 00:04:37;;;;;;;36.03;18.67;;;;;;;0.33;100.00;103104.25;6503507;23;20032;-74
2022/01/19 00:07:09;;;;;;;32.90;18.33;;;;;;;0.29;100.00;103096.25;6503541;23;20370;-77
2022/01/19 00:09:41;;;;;;;37.60;18.30;;;;;;;0.24;100.00;103085.69;6503604;23;20057;-76
2022/01/19 00:12:12;;;;;;;29.13;18.87;;;;;;;0.24;100.00;103083.13;6503105;23;20251;-77
2022/01/19 00:14:43;;;;;;;41.07;20.03;;;;;;;0.25;100.00;103089.16;6503368;23;20486;-77
2022/01/19 00:17:16;;;;;;;55.07;22.23;;;;;;;0.19;100.00;103084.47;6503939;23;20008;-80
2022/01/19 00:19:47;;;;;;;34.42;19.65;;;;;;;0.19;100.00;103089.59;6503256;23;20015;-77
2022/01/19 00:22:18;;;;;;;41.23;20.07;;;;;;;0.17;100.00;103093.75;6503485;23;20008;-78
2022/01/19 00:24:50;;;;;;;39.57;19.43;;;;;;;0.13;100.00;103094.31;6503420;23;20004;-77
2022/01/19 00:27:21;;;;;;;35.63;19.77;;;;;;;0.12;100.00;103078.06;6503589;23;20075;-78
2022/01/19 00:29:52;;;;;;;35.30;19.47;;;;;;;0.09;100.00;103062.47;6502853;23;20000;-73
2022/01/19 00:32:25;;;;;;;30.63;17.80;;;;;;;0.08;100.00;103035.06;6503317;23;20023;-75
2022/01/19 00:34:56;;;;;;;36.17;20.02;;;;;;;0.06;100.00;103022.91;6503391;23;20083;-76
2022/01/19 00:37:28;;;;;;;73.83;23.47;;;;;;;0.00;100.00;103015.72;6503628;23;20055;-75
2022/01/19 00:39:59;;;;;;;56.10;23.47;;;;;;;0.01;100.00;102993.50;6503147;23;20027;-73
2022/01/19 00:42:30;;;;;;;49.73;21.23;;;;;;;0.03;100.00;102982.56;6503472;23;20004;-77
2022/01/19 00:45:06;;;;;;;55.17;22.23;;;;;;;0.02;100.00;102982.44;6502571;23;20008;-74
2022/01/19 00:47:37;;;;;;;46.28;22.42;;;;;;;-0.09;100.00;102984.34;6503407;23;20000;-75
2022/01/19 00:50:15;;;;;;;55.87;21.83;;;;;;;-0.14;100.00;103001.09;6503288;23;20433;-78
2022/01/19 00:52:46;;;;;;;59.40;23.77;;;;;;;-0.16;100.00;103018.94;6475694;23;20012;-78
2022/01/19 00:55:21;;;;;;;47.73;25.07;;;;;;;-0.22;100.00;103015.94;6505296;23;20083;-78
2022/01/19 00:57:54;;;;;;;47.45;22.77;;;;;;;-0.24;100.00;103014.94;6505782;23;20385;-75
2022/01/19 01:00:26;;;;;;;;;;;;;;;-0.28;100.00;103018.97;6506125;23;20014;-74
2022/01/19 01:02:57;;;;;;;51.65;22.75;;;;;;;-0.33;100.00;103025.47;6505329;23;19907;-79
2022/01/19 01:05:29;;;;;;;66.40;24.33;;;;;;;-0.43;100.00;103020.50;6505942;23;20475;-73
2022/01/19 01:08:01;;;;;;;100.57;25.93;;;;;;;-0.44;100.00;103017.03;6505393;23;20004;-77
2022/01/19 01:10:40;;;;;;;73.93;26.17;;;;;;;-0.44;100.00;103005.91;6505409;23;20004;-77
2022/01/19 01:16:05;;;;;;;78.10;23.92;;;;;;;-0.49;100.00;102987.66;6505527;23;20392;-78
2022/01/19 01:18:36;;;;;;;55.72;22.00;;;;;;;-0.53;100.00;102970.31;6505275;23;20329;-77
2022/01/19 01:21:08;;;;;;;49.20;21.17;;;;;;;-0.52;100.00;102968.63;6504982;23;20012;-77
2022/01/19 01:23:39;;;;;;;41.87;21.30;;;;;;;-0.56;100.00;102954.75;6509844;22;20008;-73
2022/01/19 01:26:11;;;;;;;48.63;21.20;;;;;;;-0.59;100.00;102955.41;6511313;23;20000;-77
2022/01/19 01:28:42;;;;;;;36.17;20.93;;;;;;;-0.66;100.00;102942.06;6513035;23;20126;-78
2022/01/19 01:31:14;;;;;;;29.70;20.27;;;;;;;-0.72;100.00;102934.88;6508593;23;20016;-76
2022/01/19 01:33:45;;;;;;;35.17;19.60;;;;;;;-0.71;100.00;102931.50;6506558;23;20028;-76
2022/01/19 01:36:17;;;;;;;37.77;21.03;;;;;;;-0.74;100.00;102921.97;6505872;23;20007;-74
2022/01/19 01:38:48;;;;;;;38.77;22.83;;;;;;;-0.69;100.00;102904.34;6503712;23;20086;-78
2022/01/19 01:41:20;;;;;;;35.50;23.03;;;;;;;-0.65;100.00;102890.06;6505059;23;20007;-78
2022/01/19 01:43:51;;;;;;;45.30;22.73;;;;;;;-0.66;100.00;102876.38;6504820;23;20073;-76
2022/01/19 01:46:42;;;;;;;42.67;25.77;;;;;;;-0.61;100.00;102875.00;6504940;23;20386;-78
2022/01/19 01:55:07;;;;;;;37.17;23.58;;;;;;;-0.71;100.00;102884.53;6377293;23;20010;-77
2022/01/19 01:57:39;;;;;;;45.45;24.80;;;;;;;-0.76;100.00;102894.47;6377025;23;20122;-78
2022/01/19 02:00:15;;;;;;;43.17;25.63;;;;;;;-0.76;100.00;102892.81;6377588;23;20073;-74
2022/01/19 02:02:48;;;;;;;46.72;25.05;;;;;;;-0.76;100.00;102897.03;6377133;23;20006;-79
2022/01/19 02:05:22;;;;;;;44.28;23.88;;;;;;;-0.81;100.00;102885.59;6377347;23;20029;-72
2022/01/19 02:21:46;;;;;;;49.75;27.05;;;;;;;-0.94;100.00;102846.34;6377267;23;20009;-78
2022/01/19 02:24:20;;;;;;;52.85;29.27;;;;;;;-0.96;100.00;102854.72;6377229;23;20177;-77
2022/01/19 02:40:51;;;;;;;59.05;28.85;;;;;;;-1.14;100.00;102783.59;6377153;23;20009;-77
2022/01/19 02:43:26;;;;;;;53.17;27.83;;;;;;;-1.17;100.00;102775.69;6377050;23;20125;-77
2022/01/19 02:51:37;;;;;;;51.55;27.15;;;;;;;-1.29;100.00;102762.06;6355677;23;20083;-77
2022/01/19 02:54:14;;;;;;;49.03;27.00;;;;;;;-1.30;100.00;102758.63;6376850;23;20010;-78
2022/01/19 02:56:50;;;;;;;56.88;28.27;;;;;;;-1.30;100.00;102765.44;6376806;23;20057;-78
2022/01/19 03:10:52;;;;;;;56.47;31.25;;;;;;;-1.35;100.00;102743.78;6396767;23;20419;-78
2022/01/19 03:13:24;;;;;;;56.07;29.10;;;;;;;-1.36;100.00;102741.97;6438175;23;20009;-78
2022/01/19 03:15:55;;;;;;;50.37;29.07;;;;;;;-1.44;100.00;102730.34;6412856;23;20005;-78
2022/01/19 03:18:26;;;;;;;48.93;28.30;;;;;;;-1.45;100.00;102728.56;6438083;23;20453;-77
2022/01/19 03:20:58;;;;;;;59.90;31.83;;;;;;;-1.38;100.00;102725.66;6437977;23;20040;-78
2022/01/19 03:23:29;;;;;;;61.70;33.97;;;;;;;-1.42;100.00;102724.53;6438152;23;20020;-78
2022/01/19 03:26:06;;;;;;;56.30;30.50;;;;;;;-1.40;100.00;102722.06;6437580;23;20557;-78
2022/01/19 03:28:37;;;;;;;55.80;29.30;;;;;;;-1.43;100.00;102711.63;6437984;23;20004;-77
2022/01/19 03:31:09;;;;;;;55.03;30.83;;;;;;;-1.45;100.00;102708.09;6437792;23;20308;-76
2022/01/19 03:33:40;;;;;;;61.23;32.03;;;;;;;-1.44;100.00;102705.66;6438190;23;20052;-78
2022/01/19 03:36:12;;;;;;;48.30;29.60;;;;;;;-1.46;100.00;102699.56;6438113;23;20009;-74
2022/01/19 03:38:45;;;;;;;53.28;30.45;;;;;;;-1.49;100.00;102699.34;6461736;23;20008;-78
2022/01/19 03:41:17;;;;;;;58.25;32.65;;;;;;;-1.38;100.00;102693.28;6503474;23;20008;-75
2022/01/19 03:43:48;;;;;;;60.43;32.80;;;;;;;-1.36;100.00;102694.25;6480001;23;20026;-79
2022/01/19 03:46:21;;;;;;;67.30;34.47;;;;;;;-1.31;100.00;102692.00;6503986;23;20315;-77
2022/01/19 03:48:58;;;;;;;75.13;37.72;;;;;;;-1.15;100.00;102683.66;6503621;23;20004;-74
2022/01/19 03:51:29;;;;;;;72.03;37.13;;;;;;;-1.09;100.00;102676.41;6503674;23;20082;-77
2022/01/19 03:54:00;;;;;;;78.80;39.57;;;;;;;-1.05;100.00;102668.13;6475767;23;20040;-77
2022/01/19 03:56:32;;;;;;;73.97;38.43;;;;;;;-1.01;100.00;102652.19;6503749;23;20382;-77
2022/01/19 03:59:03;;;;;;;75.47;37.93;;;;;;;-1.03;100.00;102652.84;6503384;23;20019;-78
2022/01/19 04:01:36;;;;;;;79.63;37.57;;;;;;;-1.04;100.00;102646.84;6503233;23;20008;-73
2022/01/19 04:07:02;;;;;;;84.10;40.17;;;;;;;-1.00;100.00;102645.38;6503715;23;20012;-73
2022/01/19 04:09:36;;;;;;;83.47;40.47;;;;;;;-0.98;100.00;102638.72;6503607;23;20000;-73
2022/01/19 04:12:11;;;;;;;77.05;38.08;;;;;;;-0.96;100.00;102637.13;6505742;23;20039;-74
2022/01/19 04:14:42;;;;;;;91.00;41.60;;;;;;;-0.93;100.00;102639.88;6505588;23;20025;-75
2022/01/19 04:17:15;;;;;;;85.53;40.93;;;;;;;-0.94;100.00;102638.09;6505282;23;20006;-78
2022/01/19 04:19:48;;;;;;;95.90;45.22;;;;;;;-0.84;100.00;102626.75;6505068;23;20004;-73
2022/01/19 04:22:20;;;;;;;109.22;47.92;;;;;;;-0.76;100.00;102615.31;6503994;23;20011;-79
2022/01/19 04:24:52;;;;;;;119.18;51.70;;;;;;;-0.75;100.00;102615.44;6504146;23;20405;-77
2022/01/19 04:30:06;;;;;;;117.30;53.27;;;;;;;-0.64;100.00;102623.78;6503175;23;20080;-78
2022/01/19 04:32:48;;;;;;;126.80;56.40;;;;;;;-0.62;100.00;102629.88;6477706;23;20016;-78
2022/01/19 04:35:24;;;;;;;123.07;54.83;;;;;;;-0.62;100.00;102634.13;6503645;23;20008;-78
2022/01/19 04:54:47;;;;;;;144.63;60.45;;;;;;;-0.50;100.00;102637.47;6502833;23;20012;-78
2022/01/19 05:03:14;;;;;;;151.88;60.72;;;;;;;-0.33;100.00;102618.00;6513534;23;20012;-75
2022/01/19 05:05:54;;;;;;;147.55;58.63;;;;;;;-0.32;100.00;102622.34;6503237;23;20004;-77
2022/01/19 05:13:51;;;;;;;136.90;57.08;;;;;;;-0.32;100.00;102621.44;6502936;23;20441;-76
2022/01/19 05:16:23;;;;;;;134.30;52.75;;;;;;;-0.40;100.00;102619.31;6503429;23;20011;-76
2022/01/19 05:18:54;;;;;;;130.23;52.70;;;;;;;-0.47;100.00;102613.69;6503298;23;20004;-74
2022/01/19 05:21:26;;;;;;;137.33;54.53;;;;;;;-0.50;100.00;102616.06;6503393;23;20005;-77
2022/01/19 05:24:03;;;;;;;113.67;52.67;;;;;;;-0.54;100.00;102615.00;6502926;23;20023;-74
2022/01/19 05:26:36;;;;;;;125.75;53.10;;;;;;;-0.54;100.00;102616.69;6502840;23;20007;-76
2022/01/19 05:29:07;;;;;;;112.20;49.90;;;;;;;-0.61;100.00;102618.88;6502955;23;20353;-74
2022/01/19 05:31:39;;;;;;;118.50;55.20;;;;;;;-0.57;100.00;102625.06;6502516;23;20062;-74
2022/01/19 05:34:10;;;;;;;114.63;50.47;;;;;;;-0.59;100.00;102621.53;6475834;23;20008;-75
2022/01/19 05:36:41;;;;;;;115.17;52.60;;;;;;;-0.56;100.00;102616.59;6474967;23;20039;-74
2022/01/19 05:39:13;;;;;;;107.70;50.60;;;;;;;-0.52;100.00;102615.97;6502823;23;20035;-74
2022/01/19 05:41:44;;;;;;;112.77;54.93;;;;;;;-0.47;100.00;102617.13;6478006;23;20318;-75
2022/01/19 05:44:15;;;;;;;109.47;49.27;;;;;;;-0.40;100.00;102613.31;6504715;23;20005;-74
2022/01/19 05:46:47;;;;;;;109.63;51.80;;;;;;;-0.34;100.00;102613.66;6505029;23;20027;-75
2022/01/19 05:49:18;;;;;;;106.57;48.97;;;;;;;-0.31;100.00;102612.97;6504269;23;20008;-75
2022/01/19 05:51:49;;;;;;;98.30;48.67;;;;;;;-0.27;100.00;102607.25;6504518;23;20031;-73
2022/01/19 05:54:21;;;;;;;96.37;48.00;;;;;;;-0.23;100.00;102593.81;6504393;23;20000;-74
2022/01/19 05:56:53;;;;;;;95.43;46.10;;;;;;;-0.21;100.00;102598.25;6504686;23;20004;-73
2022/01/19 05:59:25;;;;;;;91.27;46.97;;;;;;;-0.17;100.00;102599.31;6504352;23;20055;-74
2022/01/19 06:01:57;;;;;;;88.47;45.22;;;;;;;-0.13;100.00;102592.69;6503855;23;20007;-74
2022/01/19 06:04:29;;;;;;;83.00;44.75;;;;;;;-0.09;100.00;102600.66;6504409;23;20154;-73
2022/01/19 06:07:02;;;;;;;88.13;46.00;;;;;;;-0.07;100.00;102604.19;6504164;23;20302;-73
2022/01/19 06:12:08;;;;;;;78.57;44.13;;;;;;;-0.04;100.00;102599.25;6515053;23;20038;-73
2022/01/19 06:14:43;;;;;;;84.40;42.20;;;;;;;-0.01;100.00;102589.19;6504323;23;20442;-72
2022/01/19 06:17:14;;;;;;;74.97;41.72;;;;;;;0.03;100.00;102587.66;6504255;23;20365;-76
2022/01/19 06:19:48;;;;;;;82.17;41.83;;;;;;;0.06;100.00;102585.28;6506334;23;20000;-72
2022/01/19 06:22:21;;;;;;;70.97;40.92;;;;;;;0.08;100.00;102578.59;6505490;23;20141;-75
2022/01/19 06:24:52;;;;;;;74.70;41.42;;;;;;;0.09;100.00;102580.34;6505620;23;20004;-73
2022/01/19 06:27:24;;;;;;;69.90;40.97;;;;;;;0.12;100.00;102577.09;6505334;23;20070;-74
2022/01/19 06:29:55;;;;;;;71.80;40.00;;;;;;;0.15;100.00;102574.72;6505575;23;20012;-73
2022/01/19 06:32:26;;;;;;;63.33;38.53;;;;;;;0.16;100.00;102574.81;6505227;23;20019;-73
2022/01/19 06:34:58;;;;;;;64.67;38.33;;;;;;;0.17;100.00;102563.72;6503733;23;20121;-76
2022/01/19 06:37:29;;;;;;;65.87;40.17;;;;;;;0.20;100.00;102564.72;6503746;23;20004;-75
2022/01/19 06:40:03;;;;;;;61.70;38.33;;;;;;;0.22;100.00;102564.00;6503753;23;20004;-77
2022/01/19 06:42:34;;;;;;;67.70;40.13;;;;;;;0.24;100.00;102547.03;6504252;23;20334;-75
2022/01/19 06:45:06;;;;;;;63.97;35.73;;;;;;;0.25;100.00;102550.47;6504137;23;20000;-74
2022/01/19 06:47:38;;;;;;;63.67;39.08;;;;;;;0.28;100.00;102551.53;6504401;23;20000;-74
2022/01/19 06:50:12;;;;;;;62.90;38.22;;;;;;;0.30;100.00;102547.38;6505076;23;20008;-77
2022/01/19 06:52:43;;;;;;;59.50;37.28;;;;;;;0.31;100.00;102541.44;6503772;23;20094;-76
2022/01/19 06:55:16;;;;;;;61.67;37.27;;;;;;;0.33;100.00;102541.53;6504371;23;20008;-75
2022/01/19 06:57:49;;;;;;;58.22;34.70;;;;;;;0.36;100.00;102526.34;6504716;23;20003;-76
2022/01/19 07:00:20;;;;;;;60.20;35.15;;;;;;;0.38;100.00;102526.41;6504927;23;20000;-76
2022/01/19 07:02:53;;;;;;;58.43;34.70;;;;;;;0.42;100.00;102526.69;6503989;23;20001;-75
2022/01/19 07:05:24;;;;;;;57.80;35.08;;;;;;;0.44;100.00;102517.38;6504260;23;20000;-74
2022/01/19 07:07:56;;;;;;;56.87;34.50;;;;;;;0.46;100.00;102513.22;6503974;23;20023;-74
2022/01/19 07:10:31;;;;;;;56.45;33.97;;;;;;;0.47;100.00;102520.13;6503312;23;20004;-77
2022/01/19 07:13:04;;;;;;;59.45;34.83;;;;;;;0.49;100.00;102510.81;6503910;23;20004;-77
2022/01/19 07:15:36;;;;;;;;;;;;;;;0.51;100.00;102510.91;6504136;22;20004;-75
2022/01/19 07:18:08;;;;;;;52.30;32.15;;;;;;;0.54;100.00;102509.38;6503314;23;20229;-77
2022/01/19 07:20:39;;;;;;;53.90;34.63;;;;;;;0.57;100.00;102508.69;6503798;23;20004;-76
2022/01/19 07:23:10;;;;;;;54.50;34.30;;;;;;;0.60;100.00;102508.00;6503399;23;20000;-75
2022/01/19 07:25:42;;;;;;;50.30;32.03;;;;;;;0.63;100.00;102508.13;6503297;23;20004;-74
2022/01/19 07:28:13;;;;;;;57.10;34.10;;;;;;;0.65;100.00;102507.44;6503480;23;19996;-75
2022/01/19 07:30:45;;;;;;;53.70;33.57;;;;;;;0.65;100.00;102504.00;6503437;23;20071;-76
2022/01/19 07:33:16;;;;;;;51.27;33.63;;;;;;;0.67;100.00;102502.38;6502812;23;20019;-75
2022/01/19 07:35:51;;;;;;;52.53;33.70;;;;;;;0.69;100.00;102495.66;6503570;23;20011;-75
2022/01/19 07:38:23;;;;;;;58.60;36.00;;;;;;;0.71;100.00;102506.91;6503601;23;20024;-76
2022/01/19 07:40:55;;;;;;;49.20;32.07;;;;;;;0.72;100.00;102494.16;6503119;23;20062;-76
2022/01/19 07:43:26;;;;;;;47.20;31.73;;;;;;;0.71;100.00;102492.38;6503775;23;20011;-74
2022/01/19 07:45:58;;;;;;;47.47;32.33;;;;;;;0.73;100.00;102490.78;6503111;23;20008;-77
2022/01/19 07:48:29;;;;;;;48.70;32.27;;;;;;;0.75;100.00;102489.97;6502940;23;20000;-75
2022/01/19 07:51:01;;;;;;;59.17;32.97;;;;;;;0.77;100.00;102483.25;6502977;23;20066;-74
2022/01/19 07:53:32;;;;;;;55.30;32.13;;;;;;;0.80;100.00;102485.97;6502751;23;20001;-75
2022/01/19 07:56:05;;;;;;;48.03;33.93;;;;;;;0.82;100.00;102484.38;6503471;23;20074;-74
2022/01/19 07:58:36;;;;;;;46.30;30.95;;;;;;;0.83;100.00;102492.16;6502726;23;20012;-75
2022/01/19 08:01:07;;;;;;;44.73;31.63;;;;;;;0.87;100.00;102488.06;6502639;23;20004;-74
2022/01/19 08:03:39;;;;;;;46.23;30.50;;;;;;;0.88;100.00;102490.72;6502223;23;20043;-73
2022/01/19 08:06:10;;;;;;;53.93;33.47;;;;;;;0.91;100.00;102490.00;6502535;23;20071;-75
2022/01/19 08:08:41;;;;;;;49.73;33.37;;;;;;;0.93;100.00;102479.81;6502939;23;20001;-75
2022/01/19 08:11:13;;;;;;;45.70;30.50;;;;;;;0.95;100.00;102491.06;6502694;23;19996;-74
2022/01/19 08:13:44;;;;;;;47.33;32.33;;;;;;;0.96;100.00;102477.41;6502790;23;20421;-76
2022/01/19 08:16:16;;;;;;;42.63;29.97;;;;;;;0.99;100.00;102483.59;6503848;23;20115;-77
2022/01/19 08:18:48;;;;;;;45.75;30.02;;;;;;;0.99;100.00;102475.91;6503122;23;20123;-76
2022/01/19 08:21:20;;;;;;;43.83;30.10;;;;;;;1.01;100.00;102475.97;6502813;23;20043;-76
2022/01/19 08:23:51;;;;;;;47.47;31.17;;;;;;;1.01;100.00;102471.72;6502823;23;20031;-75
2022/01/19 08:26:23;;;;;;;47.73;30.37;;;;;;;1.04;100.00;102465.88;6502413;23;20008;-77
2022/01/19 08:28:54;;;;;;;45.83;30.93;;;;;;;1.06;100.00;102464.25;6503101;23;20004;-75
2022/01/19 08:31:26;;;;;;;42.10;31.17;;;;;;;1.07;100.00;102466.91;6502425;23;20086;-76
2022/01/19 08:33:57;;;;;;;45.03;30.17;;;;;;;1.11;100.00;102457.69;6502379;23;20088;-76
2022/01/19 08:36:29;;;;;;;42.40;30.23;;;;;;;1.13;100.00;102461.22;6502691;23;20008;-76
2022/01/19 08:39:00;;;;;;;42.60;29.33;;;;;;;1.13;100.00;102456.09;6502663;23;20011;-76
2022/01/19 08:41:32;;;;;;;41.60;28.87;;;;;;;1.15;100.00;102456.19;6502715;23;20008;-76
2022/01/19 08:44:03;;;;;;;44.77;29.73;;;;;;;1.18;100.00;102457.22;6502816;23;20034;-73
2022/01/19 08:46:38;;;;;;;47.63;29.47;;;;;;;1.20;100.00;102462.44;6502884;23;20008;-76
2022/01/19 08:49:13;;;;;;;39.88;28.58;;;;;;;1.24;100.00;102454.97;6502550;23;20070;-75
2022/01/19 08:51:44;;;;;;;53.80;29.80;;;;;;;1.27;100.00;102450.00;6503162;23;20095;-76
2022/01/19 08:54:16;;;;;;;40.97;28.77;;;;;;;1.32;100.00;102449.34;6474851;23;20449;-76
2022/01/19 08:56:47;;;;;;;40.70;30.73;;;;;;;1.34;100.00;102445.19;6502488;23;20000;-76
2022/01/19 08:59:18;;;;;;;37.77;27.47;;;;;;;1.38;100.00;102436.81;6502581;23;20077;-76
2022/01/19 09:01:50;;;;;;;38.37;28.40;;;;;;;1.41;100.00;102442.09;6502891;23;20004;-75
2022/01/19 09:04:21;;;;;;;39.30;28.30;;;;;;;1.46;100.00;102427.81;6502741;23;20008;-75
2022/01/19 09:06:58;;;;;;;37.17;27.63;;;;;;;1.47;100.00;102427.00;6502803;23;20000;-75
2022/01/19 09:09:29;;;;;;;36.15;25.52;;;;;;;1.51;100.00;102422.91;6502797;23;20035;-76
2022/01/19 09:12:00;;;;;;;36.80;28.30;;;;;;;1.54;100.00;102425.63;6502580;23;20011;-75
2022/01/19 09:14:32;;;;;;;36.37;26.83;;;;;;;1.55;100.00;102420.56;6501323;23;20012;-75
2022/01/19 09:17:07;;;;;;;36.03;27.23;;;;;;;1.60;100.00;102418.22;6504609;23;20004;-75
2022/01/19 09:19:39;;;;;;;36.00;27.02;;;;;;;1.59;100.00;102419.91;6504269;23;19996;-75
2022/01/19 09:22:11;;;;;;;33.28;26.02;;;;;;;1.63;100.00;102415.81;6506622;23;20422;-76
2022/01/19 09:24:43;;;;;;;34.03;25.50;;;;;;;1.64;100.00;102415.91;6477578;23;20035;-76
2022/01/19 09:27:18;;;;;;;34.47;26.40;;;;;;;1.69;100.00;102423.84;6504534;23;20000;-76
2022/01/19 09:29:49;;;;;;;35.70;26.27;;;;;;;1.68;100.00;102424.63;6504632;23;20008;-77
2022/01/19 09:32:21;;;;;;;34.53;26.70;;;;;;;1.70;100.00;102412.72;6504190;23;20016;-76
2022/01/19 09:35:05;;;;;;;33.87;27.13;;;;;;;1.73;100.00;102406.88;6504665;23;20287;-76
2022/01/19 09:37:39;;;;;;;36.78;25.83;;;;;;;1.76;100.00;102407.91;6504449;23;20000;-75
2022/01/19 09:40:11;;;;;;;31.05;25.35;;;;;;;1.79;100.00;102397.75;6504263;23;20000;-76
2022/01/19 09:42:47;;;;;;;33.87;25.00;;;;;;;1.78;100.00;102388.28;6504403;23;19996;-75
2022/01/19 09:45:18;;;;;;;36.67;24.92;;;;;;;1.80;100.00;102386.69;6504989;23;20060;-75
2022/01/19 09:47:49;;;;;;;36.90;26.47;;;;;;;1.84;100.00;102384.28;6504564;23;20031;-74
2022/01/19 09:50:21;;;;;;;38.47;26.90;;;;;;;1.84;100.00;102376.56;6504489;23;20000;-77
2022/01/19 09:52:54;;;;;;;30.27;24.90;;;;;;;1.86;100.00;102369.78;6503832;23;20083;-76
2022/01/19 09:55:25;;;;;;;33.20;24.52;;;;;;;1.91;100.00;102363.16;6504399;23;20082;-75
2022/01/19 09:57:56;;;;;;;34.33;25.90;;;;;;;1.95;100.00;102365.09;6504177;23;20008;-75
2022/01/19 10:00:28;;;;;;;32.60;25.83;;;;;;;1.98;100.00;102354.94;6504174;23;20080;-75
2022/01/19 10:03:31;;;;;;;33.50;25.83;;;;;;;2.04;100.00;102351.78;6504520;23;20299;-74
2022/01/19 10:06:08;;;;;;;33.58;24.15;;;;;;;2.06;100.00;102345.91;6503783;23;20065;-76
2022/01/19 10:08:40;;;;;;;30.95;23.90;;;;;;;2.11;100.00;102344.44;6503956;23;20004;-76
2022/01/19 10:16:58;;;;;;;31.07;24.63;;;;;;;2.17;100.00;102346.38;6504395;23;20066;-74
2022/01/19 10:17:10;;;;;;;31.85;23.67;;;;;;;2.20;100.00;102341.38;6503925;23;20442;-74
2022/01/19 10:19:43;;;;;;;30.95;23.73;;;;;;;2.24;100.00;102335.59;6504221;23;20000;-76
2022/01/19 10:22:18;;;;;;;28.45;23.40;;;;;;;2.28;100.00;102342.63;6503890;23;20003;-74
2022/01/19 10:25:02;;;;;;;29.42;22.02;;;;;;;2.33;100.00;102348.00;6504131;23;20124;-74
2022/01/19 10:27:42;;;;;;;33.92;23.85;;;;;;;2.35;100.00;102346.34;6504071;23;20004;-75
2022/01/19 10:30:25;;;;;;;29.92;22.58;;;;;;;2.39;100.00;102337.97;6476897;23;20009;-77
2022/01/19 10:33:02;;;;;;;30.02;22.63;;;;;;;2.44;100.00;102333.91;6503799;23;20422;-75
2022/01/19 10:35:38;;;;;;;29.10;20.48;;;;;;;2.49;100.00;102329.84;6504159;23;20318;-74
2022/01/19 10:38:18;;;;;;;28.27;21.90;;;;;;;2.54;100.00;102323.25;6503480;23;20011;-74
2022/01/19 10:40:59;;;;;;;30.05;21.60;;;;;;;2.59;100.00;102314.81;6503635;23;20079;-76
2022/01/19 10:43:39;;;;;;;27.45;20.88;;;;;;;2.61;100.00;102298.66;6503619;23;20004;-73
2022/01/19 10:46:29;;;;;;;32.10;23.13;;;;;;;2.65;100.00;102304.81;6503499;23;20000;-73
2022/01/19 10:49:08;;;;;;;26.67;20.38;;;;;;;2.69;100.00;102299.00;6503304;23;20000;-74
2022/01/19 10:51:46;;;;;;;26.75;21.52;;;;;;;2.68;100.00;102299.78;6503326;23;20070;-73
2022/01/19 10:54:21;;;;;;;29.00;20.95;;;;;;;2.70;100.00;102293.88;6503137;23;20000;-73
2022/01/19 10:56:57;;;;;;;27.73;21.58;;;;;;;2.72;100.00;102320.59;6503719;23;20000;-75
2022/01/19 10:59:31;;;;;;;26.13;20.63;;;;;;;2.69;100.00;102312.75;6504178;23;20023;-75
2022/01/19 11:02:03;;;;;;;30.77;23.30;;;;;;;2.71;100.00;102311.09;6503518;23;20003;-74
2022/01/19 11:04:40;;;;;;;27.80;22.27;;;;;;;2.67;100.00;102295.44;6503405;23;20008;-74
2022/01/19 11:07:16;;;;;;;27.75;21.83;;;;;;;2.67;100.00;102286.06;6503336;23;20071;-76
2022/01/19 11:09:57;;;;;;;29.33;23.00;;;;;;;2.68;100.00;102285.22;6503086;23;20089;-75
2022/01/19 11:12:33;;;;;;;30.13;22.92;;;;;;;2.72;100.00;102281.97;6503627;23;20014;-74
2022/01/19 11:15:05;;;;;;;30.00;23.65;;;;;;;2.71;100.00;102280.19;6502955;23;20024;-74
2022/01/19 11:17:36;;;;;;;29.23;22.47;;;;;;;2.72;100.00;102281.06;6503286;23;20461;-73
2022/01/19 11:20:14;;;;;;;34.47;25.43;;;;;;;2.69;100.00;102265.53;6503415;23;20031;-76
2022/01/19 11:23:02;;;;;;;32.95;23.38;;;;;;;2.70;100.00;102262.13;6502734;23;20054;-75
2022/01/19 11:25:43;;;;;;;31.05;25.38;;;;;;;2.68;100.00;102249.16;6503034;23;20054;-74
2022/01/19 11:28:34;;;;;;;34.28;25.35;;;;;;;2.69;100.00;102250.06;6503071;23;20001;-78
2022/01/19 11:31:08;;;;;;;35.20;24.70;;;;;;;2.67;100.00;102244.84;6502677;23;20008;-74
2022/01/19 11:33:44;;;;;;;30.00;23.33;;;;;;;2.69;100.00;102238.06;6502693;23;20070;-76
2022/01/19 11:36:27;;;;;;;31.98;25.38;;;;;;;2.69;100.00;102235.50;6503229;23;20054;-74
2022/01/19 11:39:01;;;;;;;;;;;;;;;2.76;100.00;102221.19;6503028;23;20039;-74
2022/01/19 11:41:42;;;;;;;35.33;24.90;;;;;;;2.75;100.00;102216.84;6503747;23;19915;-77
2022/01/19 11:44:32;;;;;;;34.03;25.23;;;;;;;2.75;100.00;102221.97;6502795;23;20332;-74
2022/01/19 11:47:09;;;;;;;36.83;26.88;;;;;;;2.79;100.00;102212.72;6502897;23;20012;-74
2022/01/19 11:49:47;;;;;;;30.90;25.58;;;;;;;2.79;100.00;102211.00;6503128;23;20083;-75
2022/01/19 11:52:23;;;;;;;33.80;25.40;;;;;;;2.77;100.00;102192.03;6502850;23;20011;-75
2022/01/19 11:55:17;;;;;;;32.22;26.08;;;;;;;2.80;100.00;102188.69;6502688;23;20057;-75
2022/01/19 11:58:09;;;;;;;31.90;25.20;;;;;;;2.80;99.93;102191.28;6503371;23;20015;-76
2022/01/19 12:00:44;;;;;;;38.03;27.92;;;;;;;2.78;100.00;102187.75;6502873;22;20095;-75
2022/01/19 12:03:31;;;;;;;35.35;27.73;;;;;;;2.80;100.00;102181.88;6503026;23;20134;-76
2022/01/19 12:06:02;;;;;;;34.45;26.80;;;;;;;2.80;100.00;102179.31;6510566;23;20004;-76
2022/01/19 12:08:36;;;;;;;38.70;28.53;;;;;;;2.80;100.00;102174.16;6503399;23;20043;-75
2022/01/19 12:11:12;;;;;;;32.72;27.17;;;;;;;2.82;100.00;102169.03;6502382;23;20011;-74
2022/01/19 12:19:16;;;;;;;36.70;28.95;;;;;;;2.86;100.00;102168.34;6513586;23;20012;-75
2022/01/19 12:22:20;;;;;;;37.50;30.85;;;;;;;2.94;100.00;102150.66;6503461;23;20062;-75
2022/01/19 12:24:58;;;;;;;36.40;30.15;;;;;;;2.96;99.63;102151.59;6406099;23;20340;-77
2022/01/19 12:27:33;;;;;;;37.22;29.65;;;;;;;3.03;99.60;102140.72;6406272;23;20040;-77
2022/01/19 12:30:16;;;;;;;39.88;32.00;;;;;;;3.12;98.81;102122.16;6381841;23;20368;-76
2022/01/19 12:32:54;;;;;;;40.80;33.08;;;;;;;3.13;98.12;102129.09;6406368;23;20420;-76
2022/01/19 12:35:33;;;;;;;43.80;31.70;;;;;;;3.16;97.90;102136.94;6406969;23;20068;-74
2022/01/19 12:38:18;;;;;;;38.70;31.25;;;;;;;3.20;98.14;102131.94;6406742;23;20064;-76
2022/01/19 12:40:57;;;;;;;43.67;35.60;;;;;;;3.21;97.18;102130.25;6405783;23;20125;-73
2022/01/19 12:43:31;;;;;;;42.22;31.77;;;;;;;3.20;96.65;102131.06;6408688;23;20324;-76
2022/01/19 12:46:08;;;;;;;44.80;32.28;;;;;;;3.22;96.94;102124.25;6406566;23;20006;-76
2022/01/19 12:48:48;;;;;;;41.03;31.52;;;;;;;3.23;96.85;102113.16;6405783;23;20037;-76
2022/01/19 12:51:41;;;;;;;41.35;31.85;;;;;;;3.32;96.79;102098.03;6405916;23;20009;-77
2022/01/19 12:54:16;;;;;;;46.60;32.20;;;;;;;3.40;96.47;102088.03;6405745;23;20320;-77
2022/01/19 12:57:02;;;;;;;38.30;32.65;;;;;;;3.44;95.90;102087.31;6406020;23;20090;-77
2022/01/19 12:59:34;;;;;;;41.55;31.45;;;;;;;3.46;95.61;102090.81;6406201;23;20005;-76
2022/01/19 13:02:06;;;;;;;38.97;32.03;;;;;;;3.50;95.92;102079.81;6491992;23;20019;-77
2022/01/19 13:04:38;;;;;;;45.63;33.50;;;;;;;3.53;95.77;102089.38;6502961;23;20007;-78
2022/01/19 13:07:26;;;;;;;44.83;32.30;;;;;;;3.49;95.66;102074.59;6502964;23;20004;-77
2022/01/19 13:13:04;;;;;;;41.63;31.67;;;;;;;3.45;95.16;102068.47;6502600;23;20027;-75
2022/01/19 13:15:44;;;;;;;44.33;33.60;;;;;;;3.50;95.89;102069.50;6502598;23;20299;-77
2022/01/19 13:18:18;;;;;;;45.47;33.05;;;;;;;3.49;96.14;102066.88;6506981;23;20031;-73
2022/01/19 13:20:52;;;;;;;40.70;32.15;;;;;;;3.53;95.80;102049.00;6508202;23;20087;-76